Time;durP1;ratioP1;P1;durP2;ratioP2;P2;SDS_P1;SDS_P2;PMS_P1;PMS_P2;Temp;Humidity;BMP_temperature;BMP_pressure;BME280_temperature;BME280_humidity;BME280_pressure;Samples;Min_cycle;Max_cycle;Signal;HPM_P1;HPM_P2
2021/07/13 00:00:16;;;;;;;4.22;3.05;;;;;;;21.87;68.71;94799.53;5037372;28;20221;-86
2021/07/13 00:02:45;;;;;;;4.13;2.58;;;;;;;21.91;68.17;94798.72;5036389;28;20625;-86
2021/07/13 00:05:15;;;;;;;4.07;2.72;;;;;;;21.85;68.43;94802.41;5036728;28;20198;-86
2021/07/13 00:07:51;;;;;;;2.85;2.65;;;;;;;21.90;68.93;94796.38;5036536;28;20209;-85
2021/07/13 00:10:20;;;;;;;2.88;2.67;;;;;;;21.85;67.40;94788.50;5036984;28;20210;-86
2021/07/13 00:12:49;;;;;;;2.88;2.33;;;;;;;21.87;67.75;94789.03;5036143;28;20209;-87
2021/07/13 00:15:19;;;;;;;2.58;2.40;;;;;;;21.86;67.68;94782.22;5036701;28;20224;-86
2021/07/13 00:17:46;;;;;;;2.83;2.63;;;;;;;21.85;67.57;94781.44;5036424;28;20195;-87
2021/07/13 00:20:15;;;;;;;2.67;2.47;;;;;;;21.86;67.50;94782.22;5036009;28;20233;-86
2021/07/13 00:22:43;;;;;;;2.53;2.33;;;;;;;21.84;67.62;94779.09;5036241;28;20274;-86
2021/07/13 00:25:12;;;;;;;2.70;2.30;;;;;;;21.85;67.62;94767.56;5036370;28;20197;-86
2021/07/13 00:27:39;;;;;;;2.70;2.50;;;;;;;21.84;67.58;94768.59;5036173;28;20234;-86
2021/07/13 00:30:08;;;;;;;2.95;2.47;;;;;;;21.72;67.85;94755.81;5036294;28;20197;-86
2021/07/13 00:32:35;;;;;;;2.78;2.42;;;;;;;21.63;68.30;94752.94;5035068;28;20221;-86
2021/07/13 00:35:01;;;;;;;2.65;2.45;;;;;;;21.61;68.07;94754.25;5036310;28;20222;-86
2021/07/13 00:37:29;;;;;;;4.40;2.67;;;;;;;21.58;68.82;94752.94;5037621;28;20671;-86
2021/07/13 00:39:57;;;;;;;6.68;2.63;;;;;;;21.68;69.22;94760.00;5036877;28;20198;-86
2021/07/13 00:42:24;;;;;;;3.20;2.30;;;;;;;21.68;69.15;94750.31;5035787;28;20238;-86
2021/07/13 00:44:51;;;;;;;2.55;2.35;;;;;;;21.63;69.53;94742.44;5036879;28;20229;-86
2021/07/13 00:47:20;;;;;;;3.42;2.80;;;;;;;21.65;68.70;94742.97;5037248;28;20691;-86
2021/07/13 00:49:47;;;;;;;3.92;2.50;;;;;;;21.70;68.76;94752.66;5036158;28;20665;-86
2021/07/13 00:52:16;;;;;;;4.72;2.75;;;;;;;21.71;68.54;94755.00;5035445;28;20226;-86
2021/07/13 00:55:01;;;;;;;;;;;;;;;;;;;;;
2021/07/13 00:57:29;;;;;;;3.80;2.80;;;;;;;21.79;68.09;94748.44;5036165;28;20288;-86
2021/07/13 00:59:56;;;;;;;2.92;2.40;;;;;;;21.81;68.19;94737.69;5035483;28;20205;-86
2021/07/13 01:02:25;;;;;;;4.47;2.80;;;;;;;21.82;67.67;94731.38;5036141;28;20214;-86
2021/07/13 01:04:58;;;;;;;2.80;2.60;;;;;;;21.73;68.45;94731.16;5035843;28;20205;-86
2021/07/13 01:07:34;;;;;;;4.18;2.80;;;;;;;21.75;67.91;94725.63;5035801;28;20546;-86
2021/07/13 01:10:05;;;;;;;3.47;2.58;;;;;;;21.77;68.37;94728.78;5035981;28;20708;-86
2021/07/13 01:12:44;;;;;;;3.00;2.80;;;;;;;21.69;68.84;94724.88;5035898;28;20233;-86
2021/07/13 01:15:12;;;;;;;3.15;2.60;;;;;;;21.72;69.11;94719.13;5035439;28;20228;-85
2021/07/13 01:17:44;;;;;;;4.22;2.83;;;;;;;21.69;69.06;94717.81;5036405;28;20659;-86
2021/07/13 01:20:36;;;;;;;5.30;2.58;;;;;;;21.72;69.13;94721.75;5036734;28;20202;-84
2021/07/13 01:23:12;;;;;;;5.45;2.78;;;;;;;21.78;68.99;94733.75;5035956;28;20206;-85
2021/07/13 01:25:42;;;;;;;2.97;2.65;;;;;;;21.81;69.15;94730.59;5036823;28;20209;-86
2021/07/13 01:28:15;;;;;;;4.13;2.60;;;;;;;21.87;68.37;94734.78;5036756;28;20198;-85
2021/07/13 01:30:46;;;;;;;2.78;2.58;;;;;;;21.93;68.30;94731.09;5038991;28;20221;-84
2021/07/13 01:33:16;;;;;;;4.07;2.53;;;;;;;21.99;68.37;94724.75;5039790;28;20234;-83
2021/07/13 01:35:46;;;;;;;2.88;2.45;;;;;;;21.97;69.00;94726.09;5040462;28;20222;-84
2021/07/13 01:38:15;;;;;;;3.95;2.40;;;;;;;21.95;69.19;94731.59;5039259;28;20201;-85
2021/07/13 01:40:45;;;;;;;2.90;2.70;;;;;;;21.96;69.38;94735.00;5039478;28;20218;-85
2021/07/13 01:43:14;;;;;;;2.75;2.40;;;;;;;22.01;68.83;94738.41;5039220;28;20219;-85
2021/07/13 01:45:42;;;;;;;2.65;2.45;;;;;;;22.09;68.90;94744.97;5039409;28;20206;-84
2021/07/13 01:48:10;;;;;;;3.53;2.65;;;;;;;21.88;70.71;94731.13;5039347;28;20208;-83
2021/07/13 01:50:38;;;;;;;2.80;2.60;;;;;;;21.85;70.24;94730.84;5040263;28;20218;-85
2021/07/13 01:53:06;;;;;;;2.65;2.45;;;;;;;21.88;70.28;94732.94;5039699;28;20205;-85
2021/07/13 01:55:34;;;;;;;2.88;2.67;;;;;;;21.93;69.52;94733.72;5039276;28;20218;-85
2021/07/13 01:58:03;;;;;;;2.75;2.55;;;;;;;21.89;69.62;94732.69;5039800;28;20202;-84
2021/07/13 02:00:31;;;;;;;2.72;2.53;;;;;;;21.88;70.03;94731.13;5039530;28;20613;-84
2021/07/13 02:02:59;;;;;;;2.53;2.33;;;;;;;21.81;70.91;94729.81;5038869;28;20198;-86
2021/07/13 02:05:27;;;;;;;2.72;2.40;;;;;;;21.66;71.17;94726.19;5039091;28;20202;-86
2021/07/13 02:07:58;;;;;;;3.03;2.70;;;;;;;21.57;71.58;94719.91;5039747;28;20210;-86
2021/07/13 02:10:25;;;;;;;3.08;2.80;;;;;;;21.45;72.97;94727.28;5039049;28;20194;-86
2021/07/13 02:12:52;;;;;;;3.28;2.80;;;;;;;21.51;72.19;94733.31;5038630;28;20205;-87
2021/07/13 02:15:19;;;;;;;3.00;2.70;;;;;;;21.59;71.68;94730.13;5039078;28;20349;-86
2021/07/13 02:17:50;;;;;;;3.00;2.65;;;;;;;21.59;71.80;94723.06;5039289;28;20209;-86
2021/07/13 02:20:21;;;;;;;2.90;2.70;;;;;;;21.61;71.73;94712.31;5038629;28;20666;-86
2021/07/13 02:22:48;;;;;;;2.80;2.60;;;;;;;21.51;72.04;94715.78;5038230;28;20693;-85
2021/07/13 02:25:15;;;;;;;3.00;2.80;;;;;;;21.46;72.88;94709.75;5038515;28;20674;-86
2021/07/13 02:27:44;;;;;;;2.85;2.65;;;;;;;21.35;73.34;94709.78;5039241;28;20198;-86
2021/07/13 02:30:12;;;;;;;2.88;2.67;;;;;;;21.22;74.20;94693.81;5038640;28;20285;-86
2021/07/13 02:32:46;;;;;;;3.10;2.90;;;;;;;21.19;74.32;94699.53;5038111;28;20222;-86
2021/07/13 02:35:15;;;;;;;4.05;2.90;;;;;;;21.30;74.02;94701.13;5039774;28;20226;-86
2021/07/13 02:37:46;;;;;;;4.07;2.72;;;;;;;21.36;73.32;94694.81;5040878;28;20209;-87
2021/07/13 02:40:16;;;;;;;3.13;2.83;;;;;;;21.45;73.01;94692.47;5041350;28;20194;-86
2021/07/13 02:42:45;;;;;;;4.20;2.72;;;;;;;21.43;73.37;94691.94;5038739;28;20202;-86
2021/07/13 02:45:13;;;;;;;2.83;2.60;;;;;;;21.44;72.86;94689.06;5040300;28;20204;-83
2021/07/13 02:47:46;;;;;;;6.80;3.17;;;;;;;21.33;73.29;94683.06;5041121;28;20674;-84
2021/07/13 02:50:20;;;;;;;3.17;2.88;;;;;;;21.33;73.98;94674.44;5041660;28;20701;-85
2021/07/13 02:52:48;;;;;;;4.22;2.80;;;;;;;21.38;73.30;94663.91;5041157;28;20225;-85
2021/07/13 02:55:19;;;;;;;3.30;3.10;;;;;;;21.34;74.46;94691.72;5041468;28;20248;-84
2021/07/13 02:57:47;;;;;;;4.07;3.17;;;;;;;21.31;73.41;94693.03;5041518;28;20198;-84
2021/07/13 03:00:16;;;;;;;3.20;2.90;;;;;;;21.25;74.15;94667.09;5041293;28;20213;-83
2021/07/13 03:02:45;;;;;;;3.15;2.90;;;;;;;21.26;74.31;94679.16;5039617;28;20204;-87
2021/07/13 03:05:15;;;;;;;4.30;2.92;;;;;;;21.25;74.37;94696.69;5041553;28;20202;-86
2021/07/13 03:07:43;;;;;;;3.55;2.90;;;;;;;21.28;74.31;94684.91;5042635;28;20712;-85
2021/07/13 03:10:11;;;;;;;3.90;2.95;;;;;;;21.17;75.23;94699.00;5042236;28;20202;-86
2021/07/13 03:12:40;;;;;;;3.50;3.20;;;;;;;21.19;74.74;94696.91;5041179;28;20214;-85
2021/07/13 03:15:08;;;;;;;3.30;3.00;;;;;;;21.18;74.87;94701.38;5041919;28;20222;-83
2021/07/13 03:17:34;;;;;;;3.10;2.90;;;;;;;21.09;76.28;94699.56;5040650;28;20659;-85
2021/07/13 03:20:01;;;;;;;3.50;3.20;;;;;;;21.07;75.98;94693.81;5042478;28;20206;-84
2021/07/13 03:22:31;;;;;;;3.10;2.90;;;;;;;21.03;76.49;94691.72;5041088;28;20234;-85
2021/07/13 03:25:02;;;;;;;3.38;3.08;;;;;;;20.96;76.58;94695.66;5042298;28;20198;-86
2021/07/13 03:27:31;;;;;;;3.30;2.92;;;;;;;21.00;76.23;94688.81;5041866;28;20202;-86
2021/07/13 03:30:00;;;;;;;3.28;2.97;;;;;;;20.90;77.05;94697.47;5042384;28;20204;-86
2021/07/13 03:32:27;;;;;;;3.63;3.33;;;;;;;20.84;77.62;94710.81;5041435;28;20236;-86
2021/07/13 03:34:54;;;;;;;3.50;3.20;;;;;;;20.88;77.34;94719.72;5041625;28;20232;-86
2021/07/13 03:37:21;;;;;;;3.83;3.00;;;;;;;20.95;76.79;94717.63;5041907;28;20198;-85
2021/07/13 03:39:49;;;;;;;3.05;2.75;;;;;;;21.02;76.11;94713.69;5040737;28;20199;-85
2021/07/13 03:42:17;;;;;;;3.60;3.30;;;;;;;21.04;76.56;94724.69;5039996;28;20233;-85
2021/07/13 03:44:44;;;;;;;3.22;3.00;;;;;;;21.03;76.21;94714.47;5039611;28;20206;-86
2021/07/13 03:47:12;;;;;;;3.28;2.97;;;;;;;21.04;76.14;94713.44;5040163;28;20209;-86
2021/07/13 03:49:42;;;;;;;3.60;3.15;;;;;;;20.99;76.20;94724.69;5041547;28;20206;-85
2021/07/13 03:52:10;;;;;;;3.67;3.25;;;;;;;20.99;76.29;94716.03;5040581;28;20229;-86
2021/07/13 03:54:37;;;;;;;3.35;3.05;;;;;;;20.95;76.85;94718.44;5040399;28;20226;-86
2021/07/13 03:57:05;;;;;;;3.28;3.08;;;;;;;20.95;77.43;94725.50;5040953;28;20229;-86
2021/07/13 03:59:32;;;;;;;3.30;3.00;;;;;;;20.93;77.28;94725.75;5041254;28;20213;-86
2021/07/13 04:02:03;;;;;;;3.85;3.30;;;;;;;20.92;77.47;94731.25;5039968;28;20368;-85
2021/07/13 04:04:30;;;;;;;3.80;3.40;;;;;;;20.87;78.10;94734.63;5040632;28;20230;-85
2021/07/13 04:06:57;;;;;;;4.80;3.10;;;;;;;20.85;77.58;94746.41;5040169;28;20209;-85
2021/07/13 04:09:23;;;;;;;3.22;2.92;;;;;;;20.84;78.60;94744.84;5040336;28;20198;-86
2021/07/13 04:11:49;;;;;;;4.93;3.20;;;;;;;20.86;78.58;94738.31;5039672;28;20222;-84
2021/07/13 04:14:17;;;;;;;3.45;3.15;;;;;;;20.93;77.89;94733.59;5038637;28;20225;-86
2021/07/13 04:16:44;;;;;;;3.78;3.40;;;;;;;20.94;78.47;94750.09;5039979;28;20556;-85
2021/07/13 04:19:11;;;;;;;3.60;3.30;;;;;;;20.97;78.43;94737.25;5040148;28;20471;-82
2021/07/13 04:21:37;;;;;;;4.15;3.13;;;;;;;20.99;78.12;94732.53;5039133;28;20225;-85
2021/07/13 04:24:04;;;;;;;3.70;3.28;;;;;;;21.03;78.01;94728.34;5039213;28;20205;-85
2021/07/13 04:26:31;;;;;;;3.13;2.90;;;;;;;21.05;77.94;94722.84;5039699;28;20799;-85
2021/07/13 04:28:57;;;;;;;4.18;3.33;;;;;;;21.01;78.03;94729.66;5039512;28;20213;-86
2021/07/13 04:31:25;;;;;;;3.30;3.00;;;;;;;20.91;78.95;94720.00;5040018;28;20229;-84
2021/07/13 04:33:54;;;;;;;3.50;3.20;;;;;;;21.03;78.12;94717.09;5039993;28;20628;-83
2021/07/13 04:36:21;;;;;;;3.75;2.80;;;;;;;21.08;77.75;94717.09;5038948;28;20228;-84
2021/07/13 04:38:47;;;;;;;5.38;2.90;;;;;;;21.12;77.93;94699.84;5039177;28;20669;-84
2021/07/13 04:41:14;;;;;;;3.65;3.28;;;;;;;21.12;78.58;94710.31;5039519;28;20226;-85
2021/07/13 04:43:40;;;;;;;4.10;3.00;;;;;;;21.15;77.56;94719.47;5040156;28;20202;-86
2021/07/13 04:46:07;;;;;;;3.20;2.90;;;;;;;21.19;77.76;94716.03;5039176;28;20270;-86
2021/07/13 04:48:35;;;;;;;2.90;2.70;;;;;;;21.23;77.35;94701.41;5039665;28;20194;-85
2021/07/13 04:51:01;;;;;;;3.90;2.95;;;;;;;21.26;77.07;94705.31;5039357;28;20222;-85
2021/07/13 04:53:28;;;;;;;3.40;3.17;;;;;;;21.27;77.44;94706.91;5037996;28;20201;-85
2021/07/13 04:55:54;;;;;;;2.95;2.70;;;;;;;21.36;76.57;94708.69;5039299;28;20731;-85
2021/07/13 04:58:21;;;;;;;2.85;2.63;;;;;;;21.39;76.92;94704.78;5039724;28;20288;-86
2021/07/13 05:00:47;;;;;;;4.00;3.35;;;;;;;21.36;76.95;94713.94;5038979;28;20245;-86
2021/07/13 05:03:14;;;;;;;3.88;3.20;;;;;;;21.38;76.40;94713.69;5038943;28;20198;-85
2021/07/13 05:05:41;;;;;;;3.65;3.22;;;;;;;21.36;76.78;94711.31;5040865;28;20204;-86
2021/07/13 05:08:08;;;;;;;4.53;3.20;;;;;;;21.31;77.78;94708.72;5043621;28;20213;-86
2021/07/13 05:10:34;;;;;;;4.90;3.17;;;;;;;21.35;77.15;94706.38;5042756;28;20194;-85
2021/07/13 05:13:01;;;;;;;3.50;3.15;;;;;;;21.26;78.44;94695.63;5041974;28;20201;-86
2021/07/13 05:15:27;;;;;;;4.28;2.67;;;;;;;21.25;78.33;94704.53;5043368;28;20222;-86
2021/07/13 05:17:54;;;;;;;3.67;3.00;;;;;;;21.34;77.76;94702.97;5043254;28;20225;-85
2021/07/13 05:20:20;;;;;;;4.78;3.25;;;;;;;21.41;77.58;94689.59;5042704;28;20202;-86
2021/07/13 05:22:49;;;;;;;4.72;2.90;;;;;;;21.47;76.95;94690.38;5042883;28;20214;-86
2021/07/13 05:25:17;;;;;;;4.25;3.13;;;;;;;21.47;77.10;94691.16;5043813;28;20198;-85
2021/07/13 05:27:44;;;;;;;3.33;3.03;;;;;;;21.51;76.89;94692.19;5042685;28;20202;-86
2021/07/13 05:30:14;;;;;;;3.45;3.20;;;;;;;21.50;76.95;94688.00;5040644;28;20195;-88
2021/07/13 05:32:41;;;;;;;4.28;3.28;;;;;;;21.53;77.35;94678.81;5042277;28;20383;-85
2021/07/13 05:35:08;;;;;;;4.43;3.28;;;;;;;21.53;77.16;94671.75;5042430;28;20224;-85
2021/07/13 05:37:37;;;;;;;3.72;3.38;;;;;;;21.48;78.44;94665.75;5043137;28;20202;-85
2021/07/13 05:40:07;;;;;;;4.28;3.05;;;;;;;21.50;77.97;94664.44;5042856;28;20601;-86
2021/07/13 05:42:34;;;;;;;4.93;3.17;;;;;;;21.52;78.16;94666.78;5042332;28;20226;-85
2021/07/13 05:45:01;;;;;;;5.60;3.30;;;;;;;21.57;77.66;94667.53;5043401;28;20206;-85
2021/07/13 05:47:27;;;;;;;4.70;3.20;;;;;;;21.58;77.71;94663.06;5042290;28;20206;-86
2021/07/13 05:49:54;;;;;;;4.78;3.40;;;;;;;21.65;77.14;94676.69;5042228;28;20906;-86
2021/07/13 05:52:21;;;;;;;4.45;3.42;;;;;;;21.68;77.57;94687.41;5042109;28;20226;-86
2021/07/13 05:54:47;;;;;;;3.53;3.22;;;;;;;21.68;77.84;94684.81;5042642;28;20279;-85
2021/07/13 05:57:15;;;;;;;3.55;3.25;;;;;;;21.74;77.76;94679.53;5042538;28;20194;-86
2021/07/13 05:59:42;;;;;;;4.30;3.10;;;;;;;21.76;77.44;94680.81;5042337;28;20216;-85
2021/07/13 06:02:09;;;;;;;4.50;3.50;;;;;;;21.77;77.77;94686.84;5041800;28;20601;-84
2021/07/13 06:04:35;;;;;;;3.92;3.40;;;;;;;21.74;78.21;94700.50;5041811;28;20210;-86
2021/07/13 06:07:02;;;;;;;4.47;3.55;;;;;;;21.75;77.65;94707.28;5041313;28;20198;-82
2021/07/13 06:09:29;;;;;;;5.07;3.33;;;;;;;21.80;77.00;94697.59;5041122;28;20197;-86
2021/07/13 06:11:56;;;;;;;3.90;3.60;;;;;;;21.75;77.56;94702.84;5040433;28;20596;-84
2021/07/13 06:14:24;;;;;;;4.50;3.40;;;;;;;21.68;78.43;94715.44;5038836;28;20194;-83
2021/07/13 06:16:51;;;;;;;7.60;3.67;;;;;;;21.68;77.82;94710.22;5040012;28;20225;-85
2021/07/13 06:19:18;;;;;;;3.78;3.47;;;;;;;21.74;77.73;94690.81;5040404;28;20205;-82
2021/07/13 06:21:45;;;;;;;6.38;3.50;;;;;;;21.67;78.37;94696.31;5039146;28;20717;-86
2021/07/13 06:24:12;;;;;;;7.60;3.53;;;;;;;21.58;78.06;94699.75;5040409;28;20212;-83
2021/07/13 06:26:39;;;;;;;5.22;3.70;;;;;;;21.58;78.29;94674.34;5040498;28;20629;-84
2021/07/13 06:29:05;;;;;;;3.72;3.30;;;;;;;21.56;79.07;94684.28;5040659;28;20234;-85
2021/07/13 06:31:36;;;;;;;5.32;3.65;;;;;;;21.68;78.06;94702.34;5040017;28;20308;-86
2021/07/13 06:34:06;;;;;;;3.63;3.40;;;;;;;21.78;77.79;94696.28;5040636;28;20293;-85
2021/07/13 06:36:33;;;;;;;4.93;4.03;;;;;;;21.82;76.88;94684.22;5040949;28;20253;-85
2021/07/13 06:39:00;;;;;;;4.40;3.72;;;;;;;21.81;77.28;94693.13;5039732;28;20198;-85
2021/07/13 06:41:26;;;;;;;4.80;3.60;;;;;;;21.77;76.85;94692.88;5039817;28;20230;-82
2021/07/13 06:43:53;;;;;;;4.07;3.63;;;;;;;21.78;77.32;94691.03;5039953;28;20190;-84
2021/07/13 06:46:20;;;;;;;3.65;3.30;;;;;;;21.64;78.39;94699.47;5040069;28;20202;-85
2021/07/13 06:48:47;;;;;;;5.72;3.75;;;;;;;21.67;78.11;94687.69;5040247;28;20213;-85
2021/07/13 06:51:14;;;;;;;5.05;3.40;;;;;;;21.64;78.62;94682.97;5039619;28;20218;-86
2021/07/13 06:53:41;;;;;;;3.83;3.38;;;;;;;21.69;78.51;94709.94;5039725;28;20207;-85
2021/07/13 06:56:07;;;;;;;4.05;3.70;;;;;;;21.75;77.46;94702.84;5039599;28;20294;-85
2021/07/13 06:58:34;;;;;;;5.68;3.92;;;;;;;21.80;78.07;94708.06;5040007;28;20208;-85
2021/07/13 07:01:01;;;;;;;4.68;4.18;;;;;;;21.81;78.09;94719.34;5040119;28;20222;-84
2021/07/13 07:03:27;;;;;;;4.15;3.55;;;;;;;21.89;77.28;94713.56;5040811;28;20210;-83
2021/07/13 07:05:55;;;;;;;6.50;3.53;;;;;;;21.93;77.20;94712.75;5040791;28;20277;-86
2021/07/13 07:08:22;;;;;;;4.18;3.85;;;;;;;21.86;76.70;94721.94;5040329;28;20198;-85
2021/07/13 07:10:49;;;;;;;4.22;3.58;;;;;;;21.91;76.50;94721.94;5040454;28;20233;-84
2021/07/13 07:13:15;;;;;;;4.70;3.80;;;;;;;21.88;76.86;94735.56;5040590;28;20244;-85
2021/07/13 07:15:42;;;;;;;6.90;3.70;;;;;;;21.98;76.40;94727.66;5040222;28;20222;-85
2021/07/13 07:18:09;;;;;;;6.55;3.85;;;;;;;22.00;76.11;94733.44;5039159;28;20266;-86
2021/07/13 07:20:35;;;;;;;4.40;3.90;;;;;;;22.12;75.42;94741.03;5038666;28;20276;-85
2021/07/13 07:23:04;;;;;;;5.97;3.55;;;;;;;22.07;75.59;94735.78;5038956;28;20213;-86
2021/07/13 07:25:31;;;;;;;4.82;3.67;;;;;;;22.16;75.09;94728.91;5038614;28;20210;-85
2021/07/13 07:27:58;;;;;;;4.85;3.75;;;;;;;22.20;75.37;94730.75;5037903;28;20198;-86
2021/07/13 07:30:27;;;;;;;3.58;3.17;;;;;;;22.30;74.75;94714.97;5038731;28;20217;-85
2021/07/13 07:32:54;;;;;;;3.90;3.60;;;;;;;22.30;75.06;94708.94;5038570;28;20743;-85
2021/07/13 07:35:23;;;;;;;5.00;3.60;;;;;;;22.42;74.60;94713.84;5038928;28;20584;-86
2021/07/13 07:37:50;;;;;;;5.65;3.50;;;;;;;22.61;73.96;94710.31;5038620;28;20218;-86
2021/07/13 07:40:20;;;;;;;3.88;3.60;;;;;;;22.73;72.88;94723.84;5038870;28;20266;-86
2021/07/13 07:42:49;;;;;;;5.88;3.80;;;;;;;22.70;72.37;94728.88;5038102;28;20271;-86
2021/07/13 07:45:16;;;;;;;4.60;4.20;;;;;;;22.81;72.67;94737.50;5037820;28;20202;-86
2021/07/13 07:47:43;;;;;;;4.00;3.70;;;;;;;22.74;71.97;94735.13;5038173;28;20237;-85
2021/07/13 07:50:12;;;;;;;5.15;4.03;;;;;;;22.75;72.44;94731.47;5037659;28;20222;-85
2021/07/13 07:52:38;;;;;;;4.32;4.03;;;;;;;22.73;72.64;94736.19;5037945;28;20299;-86
2021/07/13 07:55:07;;;;;;;4.47;4.13;;;;;;;22.79;71.62;94724.63;5037304;28;20202;-86
2021/07/13 07:57:35;;;;;;;5.05;4.50;;;;;;;23.02;70.74;94721.31;5038705;28;20213;-86
2021/07/13 08:00:01;;;;;;;4.65;4.25;;;;;;;23.00;69.91;94730.53;5037690;28;20209;-85
2021/07/13 08:02:28;;;;;;;3.88;3.60;;;;;;;23.07;70.57;94729.16;5038035;28;20232;-86
2021/07/13 08:04:55;;;;;;;4.55;4.15;;;;;;;23.07;70.81;94744.91;5037305;28;20206;-85
2021/07/13 08:07:21;;;;;;;5.28;4.88;;;;;;;22.97;69.64;94734.47;5036456;28;20237;-85
2021/07/13 08:09:49;;;;;;;5.38;4.88;;;;;;;22.87;70.33;94747.69;5038924;28;20209;-86
2021/07/13 08:12:16;;;;;;;5.78;5.28;;;;;;;22.72;70.97;94751.16;5037087;28;20221;-86
2021/07/13 08:14:44;;;;;;;5.18;4.75;;;;;;;22.75;71.32;94752.47;5038539;28;20860;-85
2021/07/13 08:17:11;;;;;;;6.35;4.88;;;;;;;22.69;71.41;94754.34;5037083;28;20225;-86
2021/07/13 08:19:39;;;;;;;4.65;4.28;;;;;;;22.71;71.54;94752.22;5037905;28;20202;-85
2021/07/13 08:22:06;;;;;;;4.57;4.05;;;;;;;22.70;72.34;94755.91;5037629;28;20252;-86
2021/07/13 08:24:33;;;;;;;4.43;4.03;;;;;;;22.76;72.29;94748.78;5038230;28;20649;-85
2021/07/13 08:27:00;;;;;;;5.20;4.40;;;;;;;22.87;71.87;94752.16;5038783;28;20256;-85
2021/07/13 08:29:26;;;;;;;5.05;4.53;;;;;;;22.83;70.59;94751.91;5037129;28;20248;-85
2021/07/13 08:31:57;;;;;;;5.63;4.70;;;;;;;23.06;70.09;94766.19;5036914;28;20222;-85
2021/07/13 08:34:24;;;;;;;4.85;4.45;;;;;;;23.07;69.24;94768.56;5036194;28;20206;-85
2021/07/13 08:36:50;;;;;;;5.40;5.00;;;;;;;23.07;68.74;94765.94;5036498;28;20748;-85
2021/07/13 08:39:17;;;;;;;5.25;4.75;;;;;;;23.07;68.91;94768.56;5037473;28;20205;-85
2021/07/13 08:41:44;;;;;;;6.53;6.03;;;;;;;23.08;68.01;94774.59;5035181;28;20232;-85
2021/07/13 08:44:11;;;;;;;6.97;6.30;;;;;;;22.94;68.67;94776.25;5038195;28;20202;-85
2021/07/13 08:46:41;;;;;;;6.20;5.72;;;;;;;22.97;68.80;94771.22;5038602;28;20237;-86
2021/07/13 08:49:11;;;;;;;6.50;5.90;;;;;;;23.04;69.84;94776.19;5040360;28;20380;-86
2021/07/13 08:51:38;;;;;;;6.47;5.88;;;;;;;23.11;69.83;94770.59;5038697;28;20241;-86
2021/07/13 08:54:05;;;;;;;6.78;6.18;;;;;;;23.09;68.79;94770.91;5039317;28;20202;-86
2021/07/13 08:56:32;;;;;;;6.90;6.40;;;;;;;23.12;69.54;94772.16;5040602;28;20300;-86
2021/07/13 08:58:59;;;;;;;6.90;6.20;;;;;;;23.16;69.32;94773.19;5040025;28;20216;-83
2021/07/13 09:01:25;;;;;;;7.72;6.38;;;;;;;23.15;69.97;94771.63;5037301;28;20228;-86
2021/07/13 09:03:57;;;;;;;6.75;6.20;;;;;;;23.19;70.29;94773.44;5037886;28;20210;-83
2021/07/13 09:06:26;;;;;;;6.50;5.93;;;;;;;23.16;71.13;94784.50;5037367;28;20289;-85
2021/07/13 09:08:53;;;;;;;6.05;5.65;;;;;;;23.22;69.43;94791.28;5036514;28;20202;-85
2021/07/13 09:11:21;;;;;;;5.82;5.43;;;;;;;23.21;68.68;94794.19;5035415;28;20312;-86
2021/07/13 09:13:51;;;;;;;5.88;5.47;;;;;;;23.21;69.17;94802.84;5036144;28;20202;-86
2021/07/13 09:16:18;;;;;;;6.72;5.85;;;;;;;23.21;68.98;94805.47;5036239;28;20217;-84
2021/07/13 09:18:47;;;;;;;6.18;5.78;;;;;;;23.23;69.19;94810.44;5035796;28;20190;-86
2021/07/13 09:21:24;;;;;;;6.18;5.78;;;;;;;23.66;67.83;94811.44;5036193;28;20316;-84
2021/07/13 09:24:08;;;;;;;8.55;6.00;;;;;;;24.07;65.73;94801.25;5036648;28;20193;-85
2021/07/13 09:26:49;;;;;;;6.38;5.88;;;;;;;24.34;65.06;94800.72;5036143;28;20666;-85
2021/07/13 09:29:39;;;;;;;6.13;5.70;;;;;;;24.52;63.73;94805.25;5036724;28;20190;-85
2021/07/13 09:32:24;;;;;;;6.30;5.72;;;;;;;24.21;62.95;94817.19;5033946;28;20225;-86
2021/07/13 09:34:52;;;;;;;6.85;6.15;;;;;;;24.05;64.49;94819.94;5036013;28;20249;-84
2021/07/13 09:37:22;;;;;;;6.28;5.88;;;;;;;23.93;65.48;94810.91;5036938;28;20261;-84
2021/07/13 09:40:15;;;;;;;6.32;5.82;;;;;;;23.73;65.16;94806.63;5035063;28;20598;-83
2021/07/13 09:42:46;;;;;;;6.00;5.60;;;;;;;23.67;65.99;94802.47;5015663;28;20222;-84
2021/07/13 09:45:22;;;;;;;6.63;6.13;;;;;;;23.53;66.13;94796.28;5035319;28;20237;-84
2021/07/13 09:47:50;;;;;;;6.38;5.93;;;;;;;23.33;66.10;94795.38;5034918;28;20300;-86
2021/07/13 09:50:39;;;;;;;6.93;6.43;;;;;;;23.24;66.95;94801.50;5034804;28;20201;-85
2021/07/13 09:53:08;;;;;;;7.90;7.22;;;;;;;23.22;67.28;94795.75;5038885;28;20205;-85
2021/07/13 09:55:38;;;;;;;7.38;6.88;;;;;;;23.20;67.92;94803.91;5038369;28;20289;-84
2021/07/13 09:58:16;;;;;;;8.52;7.65;;;;;;;23.06;68.20;94818.72;5038629;28;20230;-86
2021/07/13 10:00:48;;;;;;;3.20;2.17;;;;;;;22.66;67.84;94817.88;5036462;28;20748;-85
2021/07/13 10:03:16;;;;;;;1.73;1.63;;;;;;;22.28;69.24;94829.84;5036202;28;20285;-86
2021/07/13 10:05:48;;;;;;;2.95;1.38;;;;;;;21.99;69.37;94834.88;5035231;28;20209;-85
2021/07/13 10:08:16;;;;;;;1.15;0.90;;;;;;;21.74;69.11;94829.69;5035471;28;20198;-85
2021/07/13 10:10:46;;;;;;;0.80;0.80;;;;;;;21.52;68.95;94848.31;5035679;28;20310;-85
2021/07/13 10:13:14;;;;;;;0.98;0.90;;;;;;;21.46;69.78;94857.22;5035667;28;20198;-85
2021/07/13 10:15:41;;;;;;;1.02;1.00;;;;;;;21.37;70.82;94866.63;5036844;28;20206;-85
2021/07/13 10:18:09;;;;;;;0.80;0.80;;;;;;;21.18;70.55;94871.53;5036829;28;20562;-84
2021/07/13 10:20:37;;;;;;;0.98;0.90;;;;;;;21.03;70.39;94877.56;5038200;28;20237;-84
2021/07/13 10:23:06;;;;;;;1.50;0.70;;;;;;;20.96;69.95;94876.25;5037756;28;20206;-86
2021/07/13 10:25:38;;;;;;;0.60;0.60;;;;;;;20.87;69.75;94886.41;5037807;28;20204;-84
2021/07/13 10:28:08;;;;;;;2.38;0.65;;;;;;;20.88;70.13;94893.22;5038601;28;20201;-84
2021/07/13 10:30:37;;;;;;;1.33;0.80;;;;;;;21.05;69.81;94895.63;5038680;28;20217;-84
2021/07/13 10:33:04;;;;;;;1.85;0.60;;;;;;;21.03;69.79;94895.09;5037926;28;20344;-86
2021/07/13 10:35:32;;;;;;;0.60;0.60;;;;;;;20.92;69.15;94898.72;5037737;28;20205;-86
2021/07/13 10:38:00;;;;;;;0.68;0.60;;;;;;;20.86;69.06;94915.44;5037173;28;20221;-85
2021/07/13 10:40:43;;;;;;;0.73;0.73;;;;;;;20.82;69.63;94909.16;5037436;28;20230;-85
2021/07/13 10:43:18;;;;;;;4.45;1.00;;;;;;;20.65;69.29;94904.13;5037834;28;20632;-85
2021/07/13 10:45:46;;;;;;;0.70;0.60;;;;;;;20.66;69.24;94909.09;5037881;28;20190;-86
2021/07/13 10:48:14;;;;;;;3.42;0.80;;;;;;;20.49;68.57;94912.94;5039179;28;20201;-86
2021/07/13 10:50:55;;;;;;;0.47;0.47;;;;;;;20.40;67.97;94919.72;5038002;28;20237;-85
2021/07/13 10:53:38;;;;;;;0.90;0.65;;;;;;;20.38;68.16;94914.75;5037892;28;20361;-86
2021/07/13 10:56:10;;;;;;;0.70;0.70;;;;;;;20.34;68.33;94914.44;5036498;28;20209;-85
2021/07/13 10:58:52;;;;;;;1.45;0.75;;;;;;;20.35;67.41;94917.81;5036607;28;20222;-85
2021/07/13 11:01:25;;;;;;;2.35;0.85;;;;;;;20.29;67.32;94930.06;5037013;28;20585;-86
2021/07/13 11:04:24;;;;;;;2.35;0.70;;;;;;;20.34;67.36;94947.63;5036577;28;20201;-85
2021/07/13 11:06:55;;;;;;;0.70;0.70;;;;;;;20.33;66.97;94952.06;5036444;28;20216;-86
2021/07/13 11:09:36;;;;;;;1.02;0.70;;;;;;;20.38;66.68;94959.19;5036737;28;20212;-85
2021/07/13 11:12:18;;;;;;;0.52;0.50;;;;;;;20.11;64.72;94948.78;5035713;28;20230;-86
2021/07/13 11:14:57;;;;;;;0.63;0.63;;;;;;;20.01;64.45;94967.78;5033481;28;20202;-85
2021/07/13 11:17:28;;;;;;;0.50;0.50;;;;;;;19.90;65.17;94965.34;5035972;28;20228;-86
2021/07/13 11:20:10;;;;;;;0.80;0.70;;;;;;;19.71;65.37;94983.22;5036256;28;20260;-86
2021/07/13 11:22:44;;;;;;;0.52;0.50;;;;;;;19.80;66.05;94978.34;5035305;28;20229;-85
2021/07/13 11:25:31;;;;;;;3.72;0.70;;;;;;;19.86;65.63;94975.50;5034814;28;20650;-85
2021/07/13 11:28:07;;;;;;;0.60;0.52;;;;;;;19.67;65.64;94984.75;5036290;28;20257;-86
2021/07/13 11:30:36;;;;;;;2.05;0.70;;;;;;;19.56;65.91;94985.69;5035668;28;20193;-87
2021/07/13 11:33:04;;;;;;;2.85;0.70;;;;;;;19.64;66.15;94990.47;5035146;28;20195;-85
2021/07/13 11:35:31;;;;;;;0.60;0.60;;;;;;;19.67;66.37;94995.97;5035213;28;20209;-85
2021/07/13 11:37:58;;;;;;;0.68;0.68;;;;;;;19.54;65.86;95003.44;5035920;28;20272;-84
2021/07/13 11:40:26;;;;;;;0.70;0.70;;;;;;;19.53;65.43;95001.84;5035435;28;20194;-87
2021/07/13 11:43:00;;;;;;;1.10;0.80;;;;;;;19.53;65.84;94997.41;5035831;28;20201;-85